Time;durP1;ratioP1;P1;durP2;ratioP2;P2;SDS_P1;SDS_P2;PMS_P1;PMS_P2;Temp;Humidity;BMP_temperature;BMP_pressure;BME280_temperature;BME280_humidity;BME280_pressure;Samples;Min_cycle;Max_cycle;Signal;HPM_P1;HPM_P2
2021/07/24 18:46:25;;;;;;;36.63;26.30;;;19.70;99.90;;;;;;6304112;22;884317;-62
2021/07/24 18:48:51;;;;;;;44.58;29.70;;;19.70;99.90;;;;;;6296801;22;1189230;-61
2021/07/24 18:51:16;;;;;;;50.28;31.70;;;19.70;99.90;;;;;;6336738;22;20006;-59
2021/07/24 18:53:42;;;;;;;39.55;28.83;;;19.70;99.90;;;;;;6336709;22;20457;-63
2021/07/24 18:56:08;;;;;;;47.90;30.83;;;19.70;99.90;;;;;;6321759;22;19999;-62
2021/07/24 18:58:34;;;;;;;44.45;28.42;;;19.60;99.90;;;;;;6305548;22;20007;-63
2021/07/24 19:00:59;;;;;;;51.13;30.63;;;19.70;99.90;;;;;;6306615;22;19999;-61
2021/07/24 19:03:25;;;;;;;49.17;30.83;;;19.60;99.90;;;;;;6304138;22;20072;-62
2021/07/24 19:05:52;;;;;;;44.05;29.98;;;19.60;99.90;;;;;;6305143;22;20000;-62
2021/07/24 19:08:18;;;;;;;47.90;29.92;;;19.60;99.90;;;;;;6305230;22;20336;-61
2021/07/24 19:10:44;;;;;;;45.40;31.40;;;19.60;99.90;;;;;;6277428;22;20003;-61
2021/07/24 19:13:09;;;;;;;51.25;30.27;;;19.50;99.90;;;;;;6306171;22;20006;-59
2021/07/24 19:15:35;;;;;;;52.28;32.00;;;19.50;99.90;;;;;;6306758;22;20007;-62
2021/07/24 19:18:01;;;;;;;47.03;32.08;;;19.40;99.90;;;;;;6307332;22;20086;-61
2021/07/24 19:20:26;;;;;;;48.58;29.77;;;19.40;99.90;;;;;;6304978;22;20064;-62
2021/07/24 19:22:52;;;;;;;50.88;31.25;;;19.50;99.90;;;;;;6276559;22;20052;-63
2021/07/24 19:25:18;;;;;;;47.03;28.15;;;19.40;99.90;;;;;;6300557;22;19999;-63
2021/07/24 19:27:44;;;;;;;53.85;30.88;;;19.50;99.90;;;;;;6301434;22;20326;-58
2021/07/24 19:30:10;;;;;;;55.72;32.78;;;19.40;99.90;;;;;;6275686;22;20022;-59
2021/07/24 19:32:36;;;;;;;52.55;33.05;;;19.40;99.90;;;;;;6277788;22;20011;-62
2021/07/24 19:35:02;;;;;;;54.28;33.42;;;19.40;99.90;;;;;;6277674;22;20458;-62
2021/07/24 19:37:29;;;;;;;51.20;31.05;;;19.30;99.90;;;;;;6252622;22;20007;-61
2021/07/24 19:39:56;;;;;;;51.83;29.50;;;19.30;99.90;;;;;;6277022;22;20003;-62
2021/07/24 19:42:22;;;;;;;53.65;31.40;;;19.30;99.90;;;;;;6275507;22;20015;-61
2021/07/24 19:44:47;;;;;;;44.33;27.20;;;19.30;99.90;;;;;;6270547;22;20167;-59
2021/07/24 19:47:13;;;;;;;51.17;30.88;;;19.30;99.90;;;;;;6302583;22;20669;-61
2021/07/24 19:49:39;;;;;;;55.13;31.73;;;19.20;99.90;;;;;;6275506;22;20011;-62
2021/07/24 19:52:05;;;;;;;52.75;31.42;;;19.20;99.90;;;;;;6274263;22;20007;-63
2021/07/24 19:54:30;;;;;;;51.95;31.73;;;19.20;99.90;;;;;;6302725;22;20007;-64
2021/07/24 19:56:56;;;;;;;51.97;32.35;;;19.10;99.90;;;;;;6300631;22;20129;-64
2021/07/24 19:59:21;;;;;;;58.20;31.77;;;19.10;99.90;;;;;;6302827;22;20078;-62
2021/07/24 20:01:47;;;;;;;49.97;31.30;;;19.00;99.90;;;;;;6302689;22;20193;-59
2021/07/24 20:04:12;;;;;;;48.13;32.72;;;19.00;99.90;;;;;;6302271;22;20056;-59
2021/07/24 20:06:38;;;;;;;48.85;30.67;;;19.00;99.90;;;;;;6301877;22;20045;-63
2021/07/24 20:09:03;;;;;;;49.50;30.67;;;19.00;99.90;;;;;;6302768;22;20002;-62
2021/07/24 20:11:31;;;;;;;44.58;30.33;;;19.00;99.90;;;;;;6302921;22;19999;-63
2021/07/24 20:13:56;;;;;;;52.50;31.17;;;19.00;99.90;;;;;;6302848;22;20041;-63
2021/07/24 20:16:22;;;;;;;43.72;28.27;;;19.00;99.90;;;;;;6302321;22;20004;-61
2021/07/24 20:18:48;;;;;;;46.10;30.17;;;19.00;99.90;;;;;;6302625;22;20389;-63
2021/07/24 20:21:14;;;;;;;47.22;30.95;;;19.00;99.90;;;;;;6302673;22;20003;-63
2021/07/24 20:23:39;;;;;;;49.33;30.05;;;19.00;99.90;;;;;;6302606;22;20007;-63
2021/07/24 20:26:05;;;;;;;50.00;30.88;;;19.00;99.90;;;;;;6302214;22;20003;-63
2021/07/24 20:28:32;;;;;;;51.13;31.10;;;19.00;99.90;;;;;;6301288;22;20003;-62
2021/07/24 20:30:58;;;;;;;56.85;32.35;;;19.00;99.90;;;;;;6302533;22;20002;-62
2021/07/24 20:33:24;;;;;;;51.78;32.50;;;18.90;99.90;;;;;;6275228;22;20007;-61
2021/07/24 20:35:49;;;;;;;49.50;32.50;;;18.90;99.90;;;;;;6274839;22;20007;-63
2021/07/24 20:38:15;;;;;;;48.33;30.30;;;18.90;99.90;;;;;;6302328;22;20007;-61
2021/07/24 20:40:40;;;;;;;47.15;30.63;;;18.90;99.90;;;;;;6302731;22;20007;-61
2021/07/24 20:43:06;;;;;;;45.20;28.50;;;18.90;99.90;;;;;;6305982;22;20442;-60
2021/07/24 20:45:31;;;;;;;49.65;29.63;;;19.00;99.90;;;;;;6305113;22;20043;-59
2021/07/24 20:47:57;;;;;;;42.50;27.90;;;19.00;99.90;;;;;;6305356;22;20015;-61
2021/07/24 20:50:22;;;;;;;40.67;27.23;;;19.00;99.90;;;;;;6305733;22;20003;-61
2021/07/24 20:52:48;;;;;;;51.28;28.23;;;19.00;99.90;;;;;;6305188;22;20070;-61
2021/07/24 20:55:13;;;;;;;44.15;28.10;;;18.90;99.90;;;;;;6305041;22;20000;-62
2021/07/24 20:57:41;;;;;;;55.33;29.23;;;18.90;99.90;;;;;;6304203;22;20006;-62
2021/07/24 21:00:09;;;;;;;50.80;31.70;;;18.80;99.90;;;;;;6306016;22;20002;-62
2021/07/24 21:02:35;;;;;;;46.03;29.10;;;18.90;99.90;;;;;;6305668;22;20461;-57
2021/07/24 21:05:01;;;;;;;47.25;30.67;;;18.80;99.90;;;;;;6305211;22;19999;-59
2021/07/24 21:07:27;;;;;;;49.88;30.67;;;18.80;99.90;;;;;;6305774;22;20068;-61
2021/07/24 21:09:52;;;;;;;46.15;30.77;;;18.80;99.90;;;;;;6305924;22;20445;-62
2021/07/24 21:12:18;;;;;;;41.00;27.48;;;18.80;99.90;;;;;;6305583;22;20042;-63
2021/07/24 21:14:43;;;;;;;43.72;25.83;;;18.80;99.90;;;;;;6302505;22;19999;-63
2021/07/24 21:17:09;;;;;;;40.60;24.75;;;18.80;99.90;;;;;;6297328;22;20323;-64
2021/07/24 21:19:35;;;;;;;38.08;27.05;;;18.80;99.90;;;;;;6303064;22;19999;-63
2021/07/24 21:22:01;;;;;;;42.67;24.65;;;18.80;99.90;;;;;;6303843;22;20399;-62
2021/07/24 21:24:26;;;;;;;39.38;25.73;;;18.80;99.90;;;;;;6274474;22;20145;-60
2021/07/24 21:26:52;;;;;;;39.75;26.05;;;18.80;99.90;;;;;;6301812;22;20011;-60
2021/07/24 21:29:18;;;;;;;57.90;33.67;;;18.80;99.90;;;;;;6274344;22;20383;-61
2021/07/24 21:31:43;;;;;;;51.67;32.28;;;18.70;99.90;;;;;;6301781;22;20006;-62
2021/07/24 21:34:09;;;;;;;42.05;26.42;;;18.70;99.90;;;;;;6301093;22;20014;-63
2021/07/24 21:36:34;;;;;;;42.92;26.73;;;18.60;99.90;;;;;;6301960;22;20072;-61
2021/07/24 21:39:01;;;;;;;41.15;24.40;;;18.70;99.90;;;;;;6302161;22;20007;-62
2021/07/24 21:41:27;;;;;;;40.40;26.92;;;18.80;99.90;;;;;;6301740;22;20006;-64
2021/07/24 21:43:53;;;;;;;40.65;25.83;;;18.70;99.90;;;;;;6300432;22;20332;-64
2021/07/24 21:46:19;;;;;;;41.80;25.38;;;18.70;99.90;;;;;;6300939;22;20007;-63
2021/07/24 21:48:44;;;;;;;43.38;25.58;;;18.70;99.90;;;;;;6301845;22;20518;-62
2021/07/24 21:51:10;;;;;;;41.92;27.20;;;18.70;99.90;;;;;;6301822;22;20078;-63
2021/07/24 21:53:35;;;;;;;43.25;28.85;;;18.70;99.90;;;;;;6303215;22;20003;-62
2021/07/24 21:56:05;;;;;;;41.67;27.60;;;18.70;99.90;;;;;;6302387;22;20315;-60
2021/07/24 21:58:32;;;;;;;49.58;29.33;;;18.60;99.90;;;;;;6301646;22;20464;-64
2021/07/24 22:00:58;;;;;;;45.20;29.73;;;18.60;99.90;;;;;;6302363;22;20086;-63
2021/07/24 22:03:23;;;;;;;38.33;27.70;;;18.60;99.90;;;;;;6303477;22;20046;-62
2021/07/24 22:05:49;;;;;;;49.90;29.33;;;18.50;99.90;;;;;;6301916;22;20459;-63
2021/07/24 22:08:14;;;;;;;39.42;27.77;;;18.60;99.90;;;;;;6302862;22;20010;-64
2021/07/24 22:10:40;;;;;;;43.17;28.17;;;18.60;99.90;;;;;;6301902;22;20003;-63
2021/07/24 22:13:06;;;;;;;51.75;28.63;;;18.50;99.90;;;;;;6302428;22;19995;-63
2021/07/24 22:15:33;;;;;;;46.67;28.70;;;18.50;99.90;;;;;;6301842;22;20007;-63
2021/07/24 22:18:02;;;;;;;49.67;32.30;;;18.40;99.90;;;;;;6301382;22;20072;-64
2021/07/24 22:20:28;;;;;;;49.63;28.80;;;18.40;99.90;;;;;;6301774;22;20358;-61
2021/07/24 22:22:54;;;;;;;47.33;29.05;;;18.30;99.90;;;;;;6302911;22;20011;-63
2021/07/24 22:25:19;;;;;;;58.55;32.47;;;18.30;99.90;;;;;;6303218;22;20064;-63
2021/07/24 22:27:45;;;;;;;60.53;34.53;;;18.20;99.90;;;;;;6302792;22;19999;-60
2021/07/24 22:30:13;;;;;;;48.10;30.50;;;18.20;99.90;;;;;;6301724;22;20000;-62
2021/07/24 22:32:39;;;;;;;53.47;31.15;;;18.10;99.90;;;;;;6301985;22;20000;-61
2021/07/24 22:35:05;;;;;;;47.13;31.20;;;18.10;99.90;;;;;;6301323;22;20743;-60
2021/07/24 22:37:31;;;;;;;50.95;31.88;;;18.00;99.90;;;;;;6301515;22;20338;-63
2021/07/24 22:39:56;;;;;;;52.28;31.17;;;18.00;99.90;;;;;;6302403;22;20008;-62
2021/07/24 22:42:23;;;;;;;60.35;32.97;;;18.00;99.90;;;;;;6301362;22;21057;-64
2021/07/24 22:44:48;;;;;;;60.15;31.60;;;17.90;99.90;;;;;;6300845;22;20018;-63
2021/07/24 22:47:15;;;;;;;46.40;29.58;;;17.90;99.90;;;;;;6301677;22;20454;-63
2021/07/24 22:49:43;;;;;;;49.45;29.75;;;17.90;99.90;;;;;;6303577;22;20011;-63
2021/07/24 22:52:09;;;;;;;49.38;29.77;;;17.80;99.90;;;;;;6304039;22;20074;-64
2021/07/24 22:54:34;;;;;;;51.10;29.83;;;17.80;99.90;;;;;;6277590;22;20379;-63
2021/07/24 22:57:00;;;;;;;47.58;29.55;;;17.80;99.90;;;;;;6303312;22;20124;-64
2021/07/24 22:59:26;;;;;;;53.20;30.20;;;17.80;99.90;;;;;;6306825;22;20499;-64
2021/07/24 23:01:51;;;;;;;49.00;30.30;;;17.80;99.90;;;;;;6305976;22;20007;-63
2021/07/24 23:04:17;;;;;;;48.95;29.83;;;17.80;99.90;;;;;;6303620;22;20451;-63
2021/07/24 23:06:43;;;;;;;50.78;29.60;;;17.70;99.90;;;;;;6302878;22;20018;-63
2021/07/24 23:09:09;;;;;;;48.55;30.67;;;17.70;99.90;;;;;;6304242;22;20003;-61
2021/07/24 23:11:35;;;;;;;48.40;29.90;;;17.70;99.90;;;;;;6296427;22;20393;-63
2021/07/24 23:14:00;;;;;;;49.22;29.35;;;17.60;99.90;;;;;;6303762;22;20018;-62
2021/07/24 23:16:26;;;;;;;47.80;29.25;;;17.60;99.90;;;;;;6303913;22;20019;-62
2021/07/24 23:18:51;;;;;;;51.90;30.70;;;17.60;99.90;;;;;;6304467;22;20034;-63
2021/07/24 23:21:17;;;;;;;47.97;30.42;;;17.50;99.90;;;;;;6302799;22;20007;-60
2021/07/24 23:23:43;;;;;;;44.22;29.17;;;17.50;99.90;;;;;;6277129;22;20092;-62
2021/07/24 23:26:09;;;;;;;49.53;28.92;;;17.60;99.90;;;;;;6303583;22;20006;-63
2021/07/24 23:28:35;;;;;;;71.78;35.88;;;17.60;99.90;;;;;;6304477;22;20401;-63
2021/07/24 23:31:00;;;;;;;43.03;28.73;;;17.50;99.90;;;;;;6303602;22;20011;-63
2021/07/24 23:33:26;;;;;;;47.35;30.38;;;17.50;99.90;;;;;;6301491;22;20022;-64
2021/07/24 23:35:51;;;;;;;52.08;30.98;;;17.50;99.90;;;;;;6304003;22;20654;-63
2021/07/24 23:38:17;;;;;;;46.70;30.38;;;17.50;99.90;;;;;;6304605;22;20334;-63
2021/07/24 23:40:43;;;;;;;48.67;31.27;;;17.50;99.90;;;;;;6302372;22;20003;-64
2021/07/24 23:43:08;;;;;;;53.67;31.50;;;17.50;99.90;;;;;;6303478;22;20060;-63
2021/07/24 23:45:37;;;;;;;48.78;29.25;;;17.40;99.90;;;;;;6302413;22;20007;-63
2021/07/24 23:48:03;;;;;;;52.92;29.92;;;17.40;99.90;;;;;;6302852;22;20014;-61
2021/07/24 23:50:29;;;;;;;45.70;28.02;;;17.30;99.90;;;;;;6302771;22;20092;-63
2021/07/24 23:52:54;;;;;;;51.80;30.00;;;17.30;99.90;;;;;;6303630;22;20031;-62
2021/07/24 23:55:20;;;;;;;52.17;29.42;;;17.30;99.90;;;;;;6304079;22;20004;-62
2021/07/24 23:57:46;;;;;;;43.97;27.65;;;17.30;99.90;;;;;;6303646;22;19995;-61
